sensor_id;sensor_type;location;lat;lon;timestamp;temperature;humidity
13440;DHT22;6792;57.698;11.946;2024-03-23T00:52:15;12.80;53.10
13440;DHT22;6792;57.698;11.946;2024-03-23T00:54:52;12.80;53.10
13440;DHT22;6792;57.698;11.946;2024-03-23T00:57:23;12.80;53.00
13440;DHT22;6792;57.698;11.946;2024-03-23T00:59:53;12.80;53.20
13440;DHT22;6792;57.698;11.946;2024-03-23T01:02:22;12.80;53.20
13440;DHT22;6792;57.698;11.946;2024-03-23T01:04:52;12.80;53.20
13440;DHT22;6792;57.698;11.946;2024-03-23T01:07:24;12.80;53.10
13440;DHT22;6792;57.698;11.946;2024-03-23T01:09:54;12.80;53.10
13440;DHT22;6792;57.698;11.946;2024-03-23T01:12:34;12.80;53.00
13440;DHT22;6792;57.698;11.946;2024-03-23T01:15:04;12.90;53.00
13440;DHT22;6792;57.698;11.946;2024-03-23T01:17:34;12.90;53.00
13440;DHT22;6792;57.698;11.946;2024-03-23T01:20:06;12.90;53.00
13440;DHT22;6792;57.698;11.946;2024-03-23T01:25:24;12.80;52.40
13440;DHT22;6792;57.698;11.946;2024-03-23T01:28:06;12.70;53.00
13440;DHT22;6792;57.698;11.946;2024-03-23T01:30:36;12.70;53.10
13440;DHT22;6792;57.698;11.946;2024-03-23T01:33:06;12.60;53.10
13440;DHT22;6792;57.698;11.946;2024-03-23T01:35:36;12.60;53.20
13440;DHT22;6792;57.698;11.946;2024-03-23T01:40:47;12.50;52.70
13440;DHT22;6792;57.698;11.946;2024-03-23T01:43:16;12.50;53.40
13440;DHT22;6792;57.698;11.946;2024-03-23T01:45:45;12.40;53.30
13440;DHT22;6792;57.698;11.946;2024-03-23T01:48:15;12.40;53.30
13440;DHT22;6792;57.698;11.946;2024-03-23T01:50:44;12.40;53.40
13440;DHT22;6792;57.698;11.946;2024-03-23T01:53:15;12.30;53.50
13440;DHT22;6792;57.698;11.946;2024-03-23T01:55:55;12.30;53.60
13440;DHT22;6792;57.698;11.946;2024-03-23T01:58:28;12.30;53.70
13440;DHT22;6792;57.698;11.946;2024-03-23T02:01:01;12.30;53.60
13440;DHT22;6792;57.698;11.946;2024-03-23T02:03:31;12.30;53.60
13440;DHT22;6792;57.698;11.946;2024-03-23T02:06:09;12.40;53.60
13440;DHT22;6792;57.698;11.946;2024-03-23T02:08:39;12.40;53.60
13440;DHT22;6792;57.698;11.946;2024-03-23T02:11:09;12.30;53.50
13440;DHT22;6792;57.698;11.946;2024-03-23T02:13:39;12.30;53.70
13440;DHT22;6792;57.698;11.946;2024-03-23T02:16:10;12.30;53.60
13440;DHT22;6792;57.698;11.946;2024-03-23T02:18:43;12.30;53.70
13440;DHT22;6792;57.698;11.946;2024-03-23T02:21:19;12.30;53.60
13440;DHT22;6792;57.698;11.946;2024-03-23T02:23:50;12.30;53.70
13440;DHT22;6792;57.698;11.946;2024-03-23T02:26:20;12.30;53.70
13440;DHT22;6792;57.698;11.946;2024-03-23T02:28:49;12.30;53.60
13440;DHT22;6792;57.698;11.946;2024-03-23T02:31:19;12.30;53.50
13440;DHT22;6792;57.698;11.946;2024-03-23T02:33:51;12.30;53.60
13440;DHT22;6792;57.698;11.946;2024-03-23T02:36:23;12.20;53.70
13440;DHT22;6792;57.698;11.946;2024-03-23T02:38:54;12.20;53.70
13440;DHT22;6792;57.698;11.946;2024-03-23T02:41:24;12.10;53.70
13440;DHT22;6792;57.698;11.946;2024-03-23T02:43:54;12.10;53.80
13440;DHT22;6792;57.698;11.946;2024-03-23T02:46:23;12.10;53.90
13440;DHT22;6792;57.698;11.946;2024-03-23T02:48:53;12.10;54.00
13440;DHT22;6792;57.698;11.946;2024-03-23T02:51:24;12.10;53.90
13440;DHT22;6792;57.698;11.946;2024-03-23T02:53:54;12.10;54.00
13440;DHT22;6792;57.698;11.946;2024-03-23T02:56:24;12.10;54.10
13440;DHT22;6792;57.698;11.946;2024-03-23T02:58:53;12.10;54.10
13440;DHT22;6792;57.698;11.946;2024-03-23T03:01:26;12.00;53.90
13440;DHT22;6792;57.698;11.946;2024-03-23T03:03:58;12.00;54.00
13440;DHT22;6792;57.698;11.946;2024-03-23T03:06:28;12.00;54.10
13440;DHT22;6792;57.698;11.946;2024-03-23T03:08:57;12.00;54.10
13440;DHT22;6792;57.698;11.946;2024-03-23T03:14:09;12.00;53.70
13440;DHT22;6792;57.698;11.946;2024-03-23T03:16:39;12.00;54.20
13440;DHT22;6792;57.698;11.946;2024-03-23T03:19:11;11.90;54.20
13440;DHT22;6792;57.698;11.946;2024-03-23T03:21:44;12.00;54.40
13440;DHT22;6792;57.698;11.946;2024-03-23T03:24:15;12.00;54.40
13440;DHT22;6792;57.698;11.946;2024-03-23T03:26:45;12.00;54.30
13440;DHT22;6792;57.698;11.946;2024-03-23T03:29:15;12.00;54.30
13440;DHT22;6792;57.698;11.946;2024-03-23T03:31:44;12.00;54.50
13440;DHT22;6792;57.698;11.946;2024-03-23T03:34:15;12.00;54.30
13440;DHT22;6792;57.698;11.946;2024-03-23T03:36:52;12.00;54.30
13440;DHT22;6792;57.698;11.946;2024-03-23T03:39:22;12.00;54.30
13440;DHT22;6792;57.698;11.946;2024-03-23T03:44:30;12.10;53.70
13440;DHT22;6792;57.698;11.946;2024-03-23T03:47:01;12.10;54.30
13440;DHT22;6792;57.698;11.946;2024-03-23T03:49:30;12.10;53.60
13440;DHT22;6792;57.698;11.946;2024-03-23T03:52:00;12.10;54.30
13440;DHT22;6792;57.698;11.946;2024-03-23T03:54:30;12.10;54.20
13440;DHT22;6792;57.698;11.946;2024-03-23T03:57:03;12.10;54.10
13440;DHT22;6792;57.698;11.946;2024-03-23T03:59:34;12.10;53.60
13440;DHT22;6792;57.698;11.946;2024-03-23T04:02:04;12.00;54.30
13440;DHT22;6792;57.698;11.946;2024-03-23T04:04:33;12.00;54.20
13440;DHT22;6792;57.698;11.946;2024-03-23T04:07:05;12.00;54.30
13440;DHT22;6792;57.698;11.946;2024-03-23T04:09:37;12.00;54.30
13440;DHT22;6792;57.698;11.946;2024-03-23T04:12:08;12.10;54.50
13440;DHT22;6792;57.698;11.946;2024-03-23T04:14:40;12.10;54.30
13440;DHT22;6792;57.698;11.946;2024-03-23T04:17:12;12.10;53.70
13440;DHT22;6792;57.698;11.946;2024-03-23T04:19:43;12.10;54.20
13440;DHT22;6792;57.698;11.946;2024-03-23T04:22:13;12.10;54.30
13440;DHT22;6792;57.698;11.946;2024-03-23T04:24:43;12.10;54.30
13440;DHT22;6792;57.698;11.946;2024-03-23T04:27:13;12.20;54.30
13440;DHT22;6792;57.698;11.946;2024-03-23T04:29:46;12.20;54.30
13440;DHT22;6792;57.698;11.946;2024-03-23T04:32:17;12.20;54.30
13440;DHT22;6792;57.698;11.946;2024-03-23T04:34:47;12.20;54.30
13440;DHT22;6792;57.698;11.946;2024-03-23T04:37:17;12.20;54.20
13440;DHT22;6792;57.698;11.946;2024-03-23T04:39:53;12.20;54.20
13440;DHT22;6792;57.698;11.946;2024-03-23T04:42:25;12.20;53.70
13440;DHT22;6792;57.698;11.946;2024-03-23T04:44:55;12.20;53.70
13440;DHT22;6792;57.698;11.946;2024-03-23T04:47:25;12.10;54.20
13440;DHT22;6792;57.698;11.946;2024-03-23T04:52:35;12.10;53.70
13440;DHT22;6792;57.698;11.946;2024-03-23T04:55:09;12.10;54.40
13440;DHT22;6792;57.698;11.946;2024-03-23T04:57:39;12.10;54.30
13440;DHT22;6792;57.698;11.946;2024-03-23T05:00:11;12.10;54.30
13440;DHT22;6792;57.698;11.946;2024-03-23T05:02:46;12.10;54.30
13440;DHT22;6792;57.698;11.946;2024-03-23T05:05:15;12.10;54.20
13440;DHT22;6792;57.698;11.946;2024-03-23T05:07:44;12.10;54.40
13440;DHT22;6792;57.698;11.946;2024-03-23T05:10:14;12.10;54.40
13440;DHT22;6792;57.698;11.946;2024-03-23T05:12:45;12.10;54.50
13440;DHT22;6792;57.698;11.946;2024-03-23T05:15:15;12.10;54.40
13440;DHT22;6792;57.698;11.946;2024-03-23T05:17:44;12.10;54.00
13440;DHT22;6792;57.698;11.946;2024-03-23T05:20:14;12.20;54.40
13440;DHT22;6792;57.698;11.946;2024-03-23T05:22:44;12.20;54.40
13440;DHT22;6792;57.698;11.946;2024-03-23T05:25:15;12.20;54.30
13440;DHT22;6792;57.698;11.946;2024-03-23T05:27:45;12.20;53.70
13440;DHT22;6792;57.698;11.946;2024-03-23T05:30:14;12.20;53.70
13440;DHT22;6792;57.698;11.946;2024-03-23T05:32:43;12.20;54.30
13440;DHT22;6792;57.698;11.946;2024-03-23T05:35:12;12.30;54.30
13440;DHT22;6792;57.698;11.946;2024-03-23T05:37:41;12.30;54.30
13440;DHT22;6792;57.698;11.946;2024-03-23T05:40:12;12.30;54.30
13440;DHT22;6792;57.698;11.946;2024-03-23T05:42:43;12.30;54.20
13440;DHT22;6792;57.698;11.946;2024-03-23T05:45:12;12.30;54.30
13440;DHT22;6792;57.698;11.946;2024-03-23T05:47:41;12.30;54.40
13440;DHT22;6792;57.698;11.946;2024-03-23T05:50:10;12.20;54.30
13440;DHT22;6792;57.698;11.946;2024-03-23T05:52:40;12.20;54.30
13440;DHT22;6792;57.698;11.946;2024-03-23T05:55:14;12.20;53.90
13440;DHT22;6792;57.698;11.946;2024-03-23T05:57:43;12.20;54.50
13440;DHT22;6792;57.698;11.946;2024-03-23T06:00:14;12.20;54.50
13440;DHT22;6792;57.698;11.946;2024-03-23T06:02:44;12.20;54.50
13440;DHT22;6792;57.698;11.946;2024-03-23T06:05:13;12.20;54.60
13440;DHT22;6792;57.698;11.946;2024-03-23T06:07:42;12.20;54.50
13440;DHT22;6792;57.698;11.946;2024-03-23T06:10:11;12.20;54.60
13440;DHT22;6792;57.698;11.946;2024-03-23T06:12:41;12.20;54.60
13440;DHT22;6792;57.698;11.946;2024-03-23T06:15:10;12.20;54.60
13440;DHT22;6792;57.698;11.946;2024-03-23T06:17:40;12.20;54.60
13440;DHT22;6792;57.698;11.946;2024-03-23T06:20:10;12.20;54.70
13440;DHT22;6792;57.698;11.946;2024-03-23T06:22:40;12.30;54.70
13440;DHT22;6792;57.698;11.946;2024-03-23T06:25:15;12.20;54.60
13440;DHT22;6792;57.698;11.946;2024-03-23T06:27:44;12.20;54.70
13440;DHT22;6792;57.698;11.946;2024-03-23T06:30:14;12.20;54.80
13440;DHT22;6792;57.698;11.946;2024-03-23T06:32:43;12.20;54.30
13440;DHT22;6792;57.698;11.946;2024-03-23T06:35:13;12.20;54.80
13440;DHT22;6792;57.698;11.946;2024-03-23T06:37:42;12.20;55.10
13440;DHT22;6792;57.698;11.946;2024-03-23T06:40:11;12.20;54.90
13440;DHT22;6792;57.698;11.946;2024-03-23T06:42:40;12.20;54.90
13440;DHT22;6792;57.698;11.946;2024-03-23T06:45:10;12.20;55.00
13440;DHT22;6792;57.698;11.946;2024-03-23T06:47:39;12.10;55.00
13440;DHT22;6792;57.698;11.946;2024-03-23T06:50:09;12.20;55.10
13440;DHT22;6792;57.698;11.946;2024-03-23T06:52:39;12.20;55.10
13440;DHT22;6792;57.698;11.946;2024-03-23T06:55:10;12.20;55.10
13440;DHT22;6792;57.698;11.946;2024-03-23T06:57:41;12.10;55.10
13440;DHT22;6792;57.698;11.946;2024-03-23T07:00:13;12.10;54.60
13440;DHT22;6792;57.698;11.946;2024-03-23T07:02:45;12.10;55.10
13440;DHT22;6792;57.698;11.946;2024-03-23T07:05:15;12.10;55.10
13440;DHT22;6792;57.698;11.946;2024-03-23T07:07:44;12.10;55.20
13440;DHT22;6792;57.698;11.946;2024-03-23T07:10:13;12.10;55.20
13440;DHT22;6792;57.698;11.946;2024-03-23T07:12:43;12.00;55.30
13440;DHT22;6792;57.698;11.946;2024-03-23T07:15:12;12.00;55.30
13440;DHT22;6792;57.698;11.946;2024-03-23T07:22:50;12.30;54.80
13440;DHT22;6792;57.698;11.946;2024-03-23T07:25:19;12.30;55.20
13440;DHT22;6792;57.698;11.946;2024-03-23T07:27:49;12.40;55.20
13440;DHT22;6792;57.698;11.946;2024-03-23T07:30:21;12.40;55.10
13440;DHT22;6792;57.698;11.946;2024-03-23T07:32:50;12.40;54.50
13440;DHT22;6792;57.698;11.946;2024-03-23T07:35:20;12.40;54.40
13440;DHT22;6792;57.698;11.946;2024-03-23T07:37:49;12.50;55.10
13440;DHT22;6792;57.698;11.946;2024-03-23T07:40:18;12.50;54.90
13440;DHT22;6792;57.698;11.946;2024-03-23T07:42:47;12.50;55.00
13440;DHT22;6792;57.698;11.946;2024-03-23T07:45:16;12.60;54.50
13440;DHT22;6792;57.698;11.946;2024-03-23T07:47:46;12.60;55.00
13440;DHT22;6792;57.698;11.946;2024-03-23T07:50:15;12.60;54.90
13440;DHT22;6792;57.698;11.946;2024-03-23T07:52:44;12.70;55.00
13440;DHT22;6792;57.698;11.946;2024-03-23T07:55:14;12.70;54.90
13440;DHT22;6792;57.698;11.946;2024-03-23T07:57:43;12.90;55.00
13440;DHT22;6792;57.698;11.946;2024-03-23T08:00:14;12.90;54.90
13440;DHT22;6792;57.698;11.946;2024-03-23T08:02:43;13.00;54.80
13440;DHT22;6792;57.698;11.946;2024-03-23T08:07:43;13.00;55.20
13440;DHT22;6792;57.698;11.946;2024-03-23T08:10:12;13.00;54.60
13440;DHT22;6792;57.698;11.946;2024-03-23T08:12:43;13.00;54.00
13440;DHT22;6792;57.698;11.946;2024-03-23T08:15:13;12.90;54.60
13440;DHT22;6792;57.698;11.946;2024-03-23T08:17:42;12.90;54.60
13440;DHT22;6792;57.698;11.946;2024-03-23T08:20:13;13.00;54.80
13440;DHT22;6792;57.698;11.946;2024-03-23T08:22:42;13.00;54.70
13440;DHT22;6792;57.698;11.946;2024-03-23T08:25:11;13.10;54.70
13440;DHT22;6792;57.698;11.946;2024-03-23T08:27:40;13.20;54.70
13440;DHT22;6792;57.698;11.946;2024-03-23T08:30:10;13.20;55.10
13440;DHT22;6792;57.698;11.946;2024-03-23T08:32:40;13.20;54.50
13440;DHT22;6792;57.698;11.946;2024-03-23T08:35:13;13.30;54.50
13440;DHT22;6792;57.698;11.946;2024-03-23T08:40:23;13.30;53.80
13440;DHT22;6792;57.698;11.946;2024-03-23T08:42:52;13.40;54.40
13440;DHT22;6792;57.698;11.946;2024-03-23T08:45:21;13.40;54.50
13440;DHT22;6792;57.698;11.946;2024-03-23T08:47:50;13.40;54.20
13440;DHT22;6792;57.698;11.946;2024-03-23T08:50:19;13.30;54.20
13440;DHT22;6792;57.698;11.946;2024-03-23T08:52:53;13.30;54.20
13440;DHT22;6792;57.698;11.946;2024-03-23T08:55:23;13.20;54.20
13440;DHT22;6792;57.698;11.946;2024-03-23T08:57:57;13.20;54.60
13440;DHT22;6792;57.698;11.946;2024-03-23T09:00:24;13.20;54.30
13440;DHT22;6792;57.698;11.946;2024-03-23T09:02:54;13.10;54.30
13440;DHT22;6792;57.698;11.946;2024-03-23T09:05:30;13.20;54.20
13440;DHT22;6792;57.698;11.946;2024-03-23T09:08:02;13.30;54.30
13440;DHT22;6792;57.698;11.946;2024-03-23T09:10:39;13.40;54.40
13440;DHT22;6792;57.698;11.946;2024-03-23T09:13:10;13.40;54.10
13440;DHT22;6792;57.698;11.946;2024-03-23T09:15:50;13.40;54.10
13440;DHT22;6792;57.698;11.946;2024-03-23T09:18:25;13.30;53.30
13440;DHT22;6792;57.698;11.946;2024-03-23T09:20:55;13.40;53.40
13440;DHT22;6792;57.698;11.946;2024-03-23T09:23:25;13.40;53.90
13440;DHT22;6792;57.698;11.946;2024-03-23T09:25:54;13.30;53.80
13440;DHT22;6792;57.698;11.946;2024-03-23T09:28:23;13.30;53.80
13440;DHT22;6792;57.698;11.946;2024-03-23T09:30:54;13.30;53.80
13440;DHT22;6792;57.698;11.946;2024-03-23T09:33:26;13.30;53.70
13440;DHT22;6792;57.698;11.946;2024-03-23T09:38:34;13.10;53.00
13440;DHT22;6792;57.698;11.946;2024-03-23T09:41:10;13.10;53.80
13440;DHT22;6792;57.698;11.946;2024-03-23T09:43:41;13.10;53.90
13440;DHT22;6792;57.698;11.946;2024-03-23T09:46:10;13.20;53.30
13440;DHT22;6792;57.698;11.946;2024-03-23T09:48:44;13.20;53.80
13440;DHT22;6792;57.698;11.946;2024-03-23T09:51:15;13.10;53.60
13440;DHT22;6792;57.698;11.946;2024-03-23T09:53:44;13.00;53.10
13440;DHT22;6792;57.698;11.946;2024-03-23T09:56:13;13.00;53.70
13440;DHT22;6792;57.698;11.946;2024-03-23T09:58:44;13.00;53.90
13440;DHT22;6792;57.698;11.946;2024-03-23T10:01:14;13.10;53.80
13440;DHT22;6792;57.698;11.946;2024-03-23T10:03:44;13.10;53.20
13440;DHT22;6792;57.698;11.946;2024-03-23T10:06:14;13.10;53.80
13440;DHT22;6792;57.698;11.946;2024-03-23T10:08:45;13.20;53.80
13440;DHT22;6792;57.698;11.946;2024-03-23T10:11:16;13.20;53.70
13440;DHT22;6792;57.698;11.946;2024-03-23T10:13:46;13.30;53.70
13440;DHT22;6792;57.698;11.946;2024-03-23T10:16:23;13.30;53.60
13440;DHT22;6792;57.698;11.946;2024-03-23T10:18:55;13.30;53.60
13440;DHT22;6792;57.698;11.946;2024-03-23T10:21:24;13.30;53.60
13440;DHT22;6792;57.698;11.946;2024-03-23T10:23:53;13.30;53.50
13440;DHT22;6792;57.698;11.946;2024-03-23T10:26:24;13.40;54.20
13440;DHT22;6792;57.698;11.946;2024-03-23T10:28:56;13.50;53.50
13440;DHT22;6792;57.698;11.946;2024-03-23T10:31:28;13.50;53.50
13440;DHT22;6792;57.698;11.946;2024-03-23T10:33:58;13.50;53.60
13440;DHT22;6792;57.698;11.946;2024-03-23T10:36:30;13.60;52.90
13440;DHT22;6792;57.698;11.946;2024-03-23T10:39:02;13.50;52.80
13440;DHT22;6792;57.698;11.946;2024-03-23T10:41:33;13.50;52.70
13440;DHT22;6792;57.698;11.946;2024-03-23T10:44:04;13.50;52.90
13440;DHT22;6792;57.698;11.946;2024-03-23T10:46:35;13.60;53.50
13440;DHT22;6792;57.698;11.946;2024-03-23T10:49:05;13.60;53.50
13440;DHT22;6792;57.698;11.946;2024-03-23T10:51:35;13.70;53.50
13440;DHT22;6792;57.698;11.946;2024-03-23T10:54:07;13.80;53.40
13440;DHT22;6792;57.698;11.946;2024-03-23T10:56:39;13.90;53.40
13440;DHT22;6792;57.698;11.946;2024-03-23T10:59:09;13.90;53.20
13440;DHT22;6792;57.698;11.946;2024-03-23T11:01:54;13.90;52.60
13440;DHT22;6792;57.698;11.946;2024-03-23T11:04:33;13.90;53.10
13440;DHT22;6792;57.698;11.946;2024-03-23T11:07:04;13.80;52.40
13440;DHT22;6792;57.698;11.946;2024-03-23T11:09:42;13.80;53.30
13440;DHT22;6792;57.698;11.946;2024-03-23T11:12:27;13.70;53.20
13440;DHT22;6792;57.698;11.946;2024-03-23T11:15:01;13.80;53.40
13440;DHT22;6792;57.698;11.946;2024-03-23T11:17:31;13.80;53.40
13440;DHT22;6792;57.698;11.946;2024-03-23T11:20:03;13.90;53.30
13440;DHT22;6792;57.698;11.946;2024-03-23T11:22:43;14.00;53.30
13440;DHT22;6792;57.698;11.946;2024-03-23T11:25:18;14.00;53.10
13440;DHT22;6792;57.698;11.946;2024-03-23T11:30:36;14.10;52.50
13440;DHT22;6792;57.698;11.946;2024-03-23T11:33:07;14.10;53.10
13440;DHT22;6792;57.698;11.946;2024-03-23T11:35:38;14.20;52.90
13440;DHT22;6792;57.698;11.946;2024-03-23T11:38:10;14.20;52.70
13440;DHT22;6792;57.698;11.946;2024-03-23T11:40:41;14.20;53.20
13440;DHT22;6792;57.698;11.946;2024-03-23T11:43:12;14.30;52.60
13440;DHT22;6792;57.698;11.946;2024-03-23T11:45:44;14.40;52.40
13440;DHT22;6792;57.698;11.946;2024-03-23T11:48:15;14.40;52.30
13440;DHT22;6792;57.698;11.946;2024-03-23T11:50:46;14.40;52.30
13440;DHT22;6792;57.698;11.946;2024-03-23T11:53:17;14.50;52.30
13440;DHT22;6792;57.698;11.946;2024-03-23T11:55:48;14.60;52.20
13440;DHT22;6792;57.698;11.946;2024-03-23T11:58:19;14.70;52.10
13440;DHT22;6792;57.698;11.946;2024-03-23T12:00:54;14.80;51.90
13440;DHT22;6792;57.698;11.946;2024-03-23T12:03:23;14.90;51.80
13440;DHT22;6792;57.698;11.946;2024-03-23T12:05:55;15.00;51.70
13440;DHT22;6792;57.698;11.946;2024-03-23T12:08:28;15.10;51.60
13440;DHT22;6792;57.698;11.946;2024-03-23T12:13:46;15.40;50.60
13440;DHT22;6792;57.698;11.946;2024-03-23T12:16:17;15.50;50.50
13440;DHT22;6792;57.698;11.946;2024-03-23T12:18:49;15.50;50.90
13440;DHT22;6792;57.698;11.946;2024-03-23T12:21:18;15.50;50.70
13440;DHT22;6792;57.698;11.946;2024-03-23T12:23:50;15.50;50.60
13440;DHT22;6792;57.698;11.946;2024-03-23T12:26:19;15.50;50.50
13440;DHT22;6792;57.698;11.946;2024-03-23T12:28:49;15.60;50.40
13440;DHT22;6792;57.698;11.946;2024-03-23T12:31:18;15.50;50.20
13440;DHT22;6792;57.698;11.946;2024-03-23T12:33:47;15.50;50.20
13440;DHT22;6792;57.698;11.946;2024-03-23T12:36:16;15.50;50.10
13440;DHT22;6792;57.698;11.946;2024-03-23T12:38:45;15.50;50.00
13440;DHT22;6792;57.698;11.946;2024-03-23T12:41:15;15.40;49.90
13440;DHT22;6792;57.698;11.946;2024-03-23T12:43:44;15.30;49.80
13440;DHT22;6792;57.698;11.946;2024-03-23T12:46:13;15.30;50.00
13440;DHT22;6792;57.698;11.946;2024-03-23T12:48:45;15.40;49.90
13440;DHT22;6792;57.698;11.946;2024-03-23T12:51:14;15.40;49.30
13440;DHT22;6792;57.698;11.946;2024-03-23T12:53:43;15.30;49.60
13440;DHT22;6792;57.698;11.946;2024-03-23T12:56:13;15.20;49.50
13440;DHT22;6792;57.698;11.946;2024-03-23T12:58:42;15.30;49.80
13440;DHT22;6792;57.698;11.946;2024-03-23T13:01:11;15.30;49.80
13440;DHT22;6792;57.698;11.946;2024-03-23T13:03:41;15.20;49.70
13440;DHT22;6792;57.698;11.946;2024-03-23T13:06:11;15.20;49.80
13440;DHT22;6792;57.698;11.946;2024-03-23T13:08:41;15.20;49.80
13440;DHT22;6792;57.698;11.946;2024-03-23T13:11:10;15.20;49.80
13440;DHT22;6792;57.698;11.946;2024-03-23T13:13:41;15.10;49.90
13440;DHT22;6792;57.698;11.946;2024-03-23T13:16:10;15.20;50.00
13440;DHT22;6792;57.698;11.946;2024-03-23T13:18:39;15.30;50.10
13440;DHT22;6792;57.698;11.946;2024-03-23T13:21:09;15.50;50.20
13440;DHT22;6792;57.698;11.946;2024-03-23T13:23:38;16.00;50.30
13440;DHT22;6792;57.698;11.946;2024-03-23T13:26:09;16.50;49.80
13440;DHT22;6792;57.698;11.946;2024-03-23T13:28:38;17.10;49.30
13440;DHT22;6792;57.698;11.946;2024-03-23T13:31:07;17.60;48.90
13440;DHT22;6792;57.698;11.946;2024-03-23T13:33:36;18.10;48.50
13440;DHT22;6792;57.698;11.946;2024-03-23T13:36:08;18.60;48.00
13440;DHT22;6792;57.698;11.946;2024-03-23T13:38:37;19.10;47.50
13440;DHT22;6792;57.698;11.946;2024-03-23T13:41:07;19.30;46.70
13440;DHT22;6792;57.698;11.946;2024-03-23T13:43:38;19.50;46.40
13440;DHT22;6792;57.698;11.946;2024-03-23T13:46:08;19.90;46.40
13440;DHT22;6792;57.698;11.946;2024-03-23T13:48:37;20.10;45.50
13440;DHT22;6792;57.698;11.946;2024-03-23T13:51:06;20.10;45.10
13440;DHT22;6792;57.698;11.946;2024-03-23T13:53:35;20.00;44.90
13440;DHT22;6792;57.698;11.946;2024-03-23T13:56:05;20.00;44.70
13440;DHT22;6792;57.698;11.946;2024-03-23T13:58:34;19.80;44.30
13440;DHT22;6792;57.698;11.946;2024-03-23T14:01:04;19.50;44.00
13440;DHT22;6792;57.698;11.946;2024-03-23T14:03:33;19.30;44.10
13440;DHT22;6792;57.698;11.946;2024-03-23T14:06:02;19.00;44.10
13440;DHT22;6792;57.698;11.946;2024-03-23T14:08:31;18.80;44.20
13440;DHT22;6792;57.698;11.946;2024-03-23T14:11:00;18.60;43.80
13440;DHT22;6792;57.698;11.946;2024-03-23T14:13:30;18.30;44.20
13440;DHT22;6792;57.698;11.946;2024-03-23T14:16:00;18.00;43.80
13440;DHT22;6792;57.698;11.946;2024-03-23T14:18:30;17.80;44.70
13440;DHT22;6792;57.698;11.946;2024-03-23T14:21:00;17.50;44.60
13440;DHT22;6792;57.698;11.946;2024-03-23T14:23:30;17.20;44.80
13440;DHT22;6792;57.698;11.946;2024-03-23T14:26:01;17.10;45.10
13440;DHT22;6792;57.698;11.946;2024-03-23T14:28:30;17.00;45.40
13440;DHT22;6792;57.698;11.946;2024-03-23T14:30:59;17.00;45.40
13440;DHT22;6792;57.698;11.946;2024-03-23T14:33:28;16.80;45.40
13440;DHT22;6792;57.698;11.946;2024-03-23T14:35:58;16.80;45.50
13440;DHT22;6792;57.698;11.946;2024-03-23T14:38:27;16.70;44.90
13440;DHT22;6792;57.698;11.946;2024-03-23T14:40:59;16.50;44.80
13440;DHT22;6792;57.698;11.946;2024-03-23T14:43:29;16.40;45.50
13440;DHT22;6792;57.698;11.946;2024-03-23T14:46:09;16.30;45.40
13440;DHT22;6792;57.698;11.946;2024-03-23T14:48:38;16.20;45.50
13440;DHT22;6792;57.698;11.946;2024-03-23T14:51:11;16.20;45.80
13440;DHT22;6792;57.698;11.946;2024-03-23T14:53:45;16.10;45.70
13440;DHT22;6792;57.698;11.946;2024-03-23T14:56:13;16.10;45.80
13440;DHT22;6792;57.698;11.946;2024-03-23T14:58:43;15.90;45.70
13440;DHT22;6792;57.698;11.946;2024-03-23T15:01:15;15.90;45.90
13440;DHT22;6792;57.698;11.946;2024-03-23T15:03:45;15.90;46.00
13440;DHT22;6792;57.698;11.946;2024-03-23T15:06:18;15.80;46.00
13440;DHT22;6792;57.698;11.946;2024-03-23T15:08:47;15.70;46.10
13440;DHT22;6792;57.698;11.946;2024-03-23T15:13:59;15.60;45.80
13440;DHT22;6792;57.698;11.946;2024-03-23T15:16:29;15.60;46.50
13440;DHT22;6792;57.698;11.946;2024-03-23T15:18:59;15.70;46.70
13440;DHT22;6792;57.698;11.946;2024-03-23T15:21:28;15.60;46.70
13440;DHT22;6792;57.698;11.946;2024-03-23T15:23:57;15.60;46.70
13440;DHT22;6792;57.698;11.946;2024-03-23T15:26:26;15.60;46.90
13440;DHT22;6792;57.698;11.946;2024-03-23T15:31:39;15.40;46.40
13440;DHT22;6792;57.698;11.946;2024-03-23T15:34:08;15.30;46.60
13440;DHT22;6792;57.698;11.946;2024-03-23T15:36:38;15.30;46.70
13440;DHT22;6792;57.698;11.946;2024-03-23T15:39:07;15.20;47.20
13440;DHT22;6792;57.698;11.946;2024-03-23T15:41:36;15.20;47.40
13440;DHT22;6792;57.698;11.946;2024-03-23T15:44:06;15.20;47.40
13440;DHT22;6792;57.698;11.946;2024-03-23T15:46:35;15.20;47.50
13440;DHT22;6792;57.698;11.946;2024-03-23T15:49:05;15.20;46.90
13440;DHT22;6792;57.698;11.946;2024-03-23T15:51:34;15.10;47.50
13440;DHT22;6792;57.698;11.946;2024-03-23T15:54:05;15.10;47.00
13440;DHT22;6792;57.698;11.946;2024-03-23T15:56:34;15.00;47.10
13440;DHT22;6792;57.698;11.946;2024-03-23T15:59:04;15.00;47.70
13440;DHT22;6792;57.698;11.946;2024-03-23T16:01:34;15.00;47.70
13440;DHT22;6792;57.698;11.946;2024-03-23T16:04:06;15.00;47.80
13440;DHT22;6792;57.698;11.946;2024-03-23T16:06:36;15.00;47.90
13440;DHT22;6792;57.698;11.946;2024-03-23T16:09:05;15.00;47.90
13440;DHT22;6792;57.698;11.946;2024-03-23T16:11:35;14.90;47.90
13440;DHT22;6792;57.698;11.946;2024-03-23T16:14:05;14.80;48.00
13440;DHT22;6792;57.698;11.946;2024-03-23T16:16:34;14.80;48.10
13440;DHT22;6792;57.698;11.946;2024-03-23T16:19:07;14.80;48.20
13440;DHT22;6792;57.698;11.946;2024-03-23T16:21:36;14.70;48.20
13440;DHT22;6792;57.698;11.946;2024-03-23T16:26:43;14.60;47.80
13440;DHT22;6792;57.698;11.946;2024-03-23T16:29:13;14.50;48.40
13440;DHT22;6792;57.698;11.946;2024-03-23T16:31:43;14.40;48.30
13440;DHT22;6792;57.698;11.946;2024-03-23T16:34:12;14.40;48.50
13440;DHT22;6792;57.698;11.946;2024-03-23T16:36:45;14.40;48.60
13440;DHT22;6792;57.698;11.946;2024-03-23T16:39:16;14.40;48.60
13440;DHT22;6792;57.698;11.946;2024-03-23T16:41:46;14.40;48.00
13440;DHT22;6792;57.698;11.946;2024-03-23T16:44:18;14.40;48.60
13440;DHT22;6792;57.698;11.946;2024-03-23T16:46:49;14.40;48.60
13440;DHT22;6792;57.698;11.946;2024-03-23T16:49:19;14.40;48.90
13440;DHT22;6792;57.698;11.946;2024-03-23T16:51:49;14.40;49.00
13440;DHT22;6792;57.698;11.946;2024-03-23T16:54:20;14.40;48.60
13440;DHT22;6792;57.698;11.946;2024-03-23T16:56:53;14.40;48.60
13440;DHT22;6792;57.698;11.946;2024-03-23T16:59:25;14.40;48.70
13440;DHT22;6792;57.698;11.946;2024-03-23T17:01:56;14.30;49.10
13440;DHT22;6792;57.698;11.946;2024-03-23T17:04:26;14.30;48.20
13440;DHT22;6792;57.698;11.946;2024-03-23T17:06:55;14.30;48.20
13440;DHT22;6792;57.698;11.946;2024-03-23T17:09:25;14.30;48.80
13440;DHT22;6792;57.698;11.946;2024-03-23T17:11:56;14.30;48.70
13440;DHT22;6792;57.698;11.946;2024-03-23T17:17:06;14.20;48.20
13440;DHT22;6792;57.698;11.946;2024-03-23T17:19:36;14.60;48.40
13440;DHT22;6792;57.698;11.946;2024-03-23T17:22:07;14.20;48.90
13440;DHT22;6792;57.698;11.946;2024-03-23T17:24:36;14.20;48.80